ΕΜΥ, Εθνική Μετεωρολογική Υπηρεσία - Δελτία Καιρού, Προγνώσεις

ΑΕΡΟΝΑΥΤΙΛΙΑ

GREEK AIRPORTS CODES

TAF LGML 180700Z 1809/1818 26015KT 9999 FEW020 TEMPO 1809/1818 26018G28KT=

EUROPEAN AIRPORTS CODES

LFPO 181030Z 04009KT 020V080 9999 BKN029 09/03 Q1022 NOSIG=